Pahoa, HI (96778)

2:32 AM HST on September 27, 2016 (GMT -1000)
Hawaiian Shores Rec. (Malolo St.) | | Change Station

Elev 217 ft 19.54 °N, 154.90 °W | Updated 29 seconds ago

Partly Cloudy
Partly Cloudy
76.5 °F
Feels Like 77 °F
N
2.9
Wind Variable Wind from ENE
Gusts 4.9 mph

Today
High -- | Low -- °F
--% Chance of Precip.
Yesterday
High -- | Low -- °F
Precip. -- in
Pressure 29.96 in
Visibility 10.0 miles
Clouds Few 3300 ft
Few 6500 ft
Heat Index 77 °F
Dew Point 74 °F
Humidity 91%
Rainfall 0.00 in
Snow Depth Not available.
6:09 AM 6:10 PM
Waning Crescent, 12% visible
METAR PHTO 271153Z 26004KT 10SM FEW033 FEW065 23/21 A2996 RMK AO2 SLP144 60000 70007 T02280206 10239 20222 58018
Pressure 29.96 in
Visibility 10.0 miles
Clouds Few 3300 ft
Few 6500 ft
Heat Index 77 °F
Dew Point 74 °F
Humidity 91%
Rainfall 0.00 in
Snow Depth Not available.
6:09 AM 6:10 PM
Waning Crescent, 12% visible
METAR PHTO 271153Z 26004KT 10SM FEW033 FEW065 23/21 A2996 RMK AO2 SLP144 60000 70007 T02280206 10239 20222 58018

10-Day Weather Forecast

Almanac

Astronomy

Sep. 27, 2016 Rise Set
Actual Time
Civil Twilight
Nautical Twilight
Astronomical Twilight
Moon
Length of Visible Light
Length of Day
Tomorrow will be .
, % of the Moon is Illuminated

Today's Extremes

State Highs State Lows

Community

WunderPhotos

Upload Photos

1,942,070 photos uploaded!

WunderBlog® & News

Nearby

Air Quality

  Air Quality AQ Index Pollutant
Not available.

Snow Depth

Station Depth Elevation

Earthquake Activity

City Distance Mag. Time & Date
Minimum magnitude displayed is 2.5.

Coastal Water Temperatures

Place Temperature

Stations

Nearby Weather Stations

Station Location Temp. Windchill Dew Point Humidity Wind Precip. Elev Updated Type
                   

Watches & Warnings

There are currently no watches in effect.